createdAt,value
2019-05-16T00:01:25.892Z,3.57
2019-05-16T00:03:52.524Z,4.20
2019-05-16T00:06:19.378Z,3.73
2019-05-16T00:08:48.005Z,4.23
2019-05-16T00:11:14.750Z,5.20
2019-05-16T00:13:41.802Z,3.50
2019-05-16T00:16:09.980Z,4.37
2019-05-16T00:18:38.674Z,4.67
2019-05-16T00:21:05.268Z,3.77
2019-05-16T00:23:31.892Z,3.60
2019-05-16T00:25:58.756Z,3.10
2019-05-16T00:28:25.543Z,3.40
2019-05-16T00:30:52.281Z,3.80
2019-05-16T00:33:18.886Z,3.60
2019-05-16T00:35:45.518Z,3.57
2019-05-16T00:38:12.126Z,3.87
2019-05-16T00:40:38.886Z,4.07
2019-05-16T00:43:07.882Z,3.93
2019-05-16T00:45:34.191Z,4.00
2019-05-16T00:48:00.788Z,4.37
2019-05-16T00:50:28.778Z,3.97
2019-05-16T00:52:55.974Z,4.07
2019-05-16T00:55:23.025Z,4.17
2019-05-16T00:57:50.682Z,4.67
2019-05-16T01:00:21.140Z,4.50
2019-05-16T01:02:48.561Z,4.13
2019-05-16T01:05:15.401Z,4.87
2019-05-16T01:07:42.153Z,4.33
2019-05-16T01:10:09.343Z,4.40
2019-05-16T01:12:36.306Z,4.23
2019-05-16T01:15:07.613Z,3.80
2019-05-16T01:17:34.197Z,5.07
2019-05-16T01:20:00.833Z,3.83
2019-05-16T01:22:29.020Z,4.57
2019-05-16T01:24:55.695Z,3.87
2019-05-16T01:27:24.622Z,4.03
2019-05-16T01:29:51.500Z,4.20
2019-05-16T01:32:18.974Z,4.80
2019-05-16T01:34:48.197Z,3.80
2019-05-16T01:37:14.375Z,4.40
2019-05-16T01:39:40.994Z,3.93
2019-05-16T01:42:08.078Z,4.77
2019-05-16T01:44:34.966Z,4.87
2019-05-16T01:47:01.692Z,4.77
2019-05-16T01:49:28.348Z,4.57
2019-05-16T01:51:55.065Z,5.10
2019-05-16T01:54:21.792Z,4.73
2019-05-16T01:56:48.507Z,4.90
2019-05-16T01:59:15.215Z,4.63
2019-05-16T02:01:41.833Z,4.37
2019-05-16T02:04:09.107Z,5.03
2019-05-16T02:06:48.366Z,5.03
2019-05-16T02:09:08.487Z,4.47
2019-05-16T02:11:34.546Z,4.73
2019-05-16T02:14:01.276Z,4.63
2019-05-16T02:16:28.077Z,4.60
2019-05-16T02:18:58.736Z,4.33
2019-05-16T02:21:25.032Z,4.30
2019-05-16T02:23:51.746Z,5.30
2019-05-16T02:26:19.115Z,5.17
2019-05-16T02:28:46.164Z,4.87
2019-05-16T02:31:15.288Z,5.53
2019-05-16T02:33:41.246Z,5.03
2019-05-16T02:36:10.694Z,5.17
2019-05-16T02:38:36.470Z,5.33
2019-05-16T02:41:03.636Z,5.23
2019-05-16T02:43:31.244Z,5.47
2019-05-16T02:46:01.313Z,5.53
2019-05-16T02:48:26.893Z,4.60
2019-05-16T02:50:53.483Z,5.70
2019-05-16T02:53:22.419Z,5.47
2019-05-16T02:55:51.530Z,5.03
2019-05-16T02:58:18.077Z,6.27
2019-05-16T03:00:44.733Z,5.70
2019-05-16T03:03:12.260Z,5.63
2019-05-16T03:05:41.903Z,5.40
2019-05-16T03:08:12.029Z,5.10
2019-05-16T03:10:41.232Z,5.77
2019-05-16T03:13:11.217Z,5.23
2019-05-16T03:15:40.475Z,5.83
2019-05-16T03:18:06.261Z,6.27
2019-05-16T03:20:33.299Z,6.33
2019-05-16T03:23:02.209Z,6.53
2019-05-16T03:25:31.084Z,6.03
2019-05-16T03:27:57.268Z,6.70
2019-05-16T03:30:25.398Z,7.53
2019-05-16T03:32:54.608Z,7.50
2019-05-16T03:35:24.778Z,6.27
2019-05-16T03:37:55.631Z,6.50
2019-05-16T03:40:25.889Z,6.63
2019-05-16T03:42:53.085Z,6.50
2019-05-16T03:45:21.231Z,6.87
2019-05-16T03:47:51.114Z,7.20
2019-05-16T03:50:21.566Z,6.90
2019-05-16T03:52:46.751Z,7.70
2019-05-16T03:55:13.815Z,7.83
2019-05-16T03:57:41.685Z,7.17
2019-05-16T04:00:11.825Z,6.73
2019-05-16T04:02:41.914Z,8.23
2019-05-16T04:05:10.906Z,8.13
2019-05-16T04:07:36.140Z,9.00
2019-05-16T04:10:05.738Z,8.73
2019-05-16T04:12:32.395Z,8.63
2019-05-16T04:15:01.723Z,8.97
2019-05-16T04:17:31.433Z,9.47
2019-05-16T04:19:57.235Z,8.67
2019-05-16T04:22:23.865Z,8.27
2019-05-16T04:24:51.227Z,8.57
2019-05-16T04:27:21.194Z,9.70
2019-05-16T04:29:51.416Z,8.83
2019-05-16T04:32:20.530Z,9.03
2019-05-16T04:34:45.825Z,8.63
2019-05-16T04:37:12.621Z,8.13
2019-05-16T04:39:41.482Z,9.17
2019-05-16T04:42:10.812Z,8.93
2019-05-16T04:44:36.436Z,7.53
2019-05-16T04:47:03.158Z,7.73
2019-05-16T04:49:32.009Z,8.87
2019-05-16T04:52:00.613Z,9.43
2019-05-16T04:54:26.926Z,8.93
2019-05-16T04:56:53.794Z,8.13
2019-05-16T04:59:20.931Z,8.63
2019-05-16T05:01:50.825Z,8.17
2019-05-16T05:04:16.471Z,8.70
2019-05-16T05:06:43.162Z,9.37
2019-05-16T05:09:11.712Z,8.70
2019-05-16T05:11:41.070Z,8.57
2019-05-16T05:14:06.806Z,11.10
2019-05-16T05:16:33.538Z,8.17
2019-05-16T05:19:00.514Z,9.43
2019-05-16T05:21:27.360Z,10.07
2019-05-16T05:23:54.351Z,9.70
2019-05-16T05:26:22.988Z,8.60
2019-05-16T05:28:50.819Z,9.20
2019-05-16T05:31:23.860Z,9.37
2019-05-16T05:33:46.289Z,10.00
2019-05-16T05:36:12.970Z,9.77
2019-05-16T05:38:40.323Z,9.40
2019-05-16T05:41:07.040Z,10.33
2019-05-16T05:43:33.864Z,9.57
2019-05-16T05:46:00.994Z,8.77
2019-05-16T05:48:30.578Z,9.13
2019-05-16T05:50:56.552Z,9.50
2019-05-16T05:53:23.200Z,8.70
2019-05-16T05:55:51.002Z,10.03
2019-05-16T05:58:20.586Z,9.77
2019-05-16T06:00:47.753Z,8.80
2019-05-16T06:03:14.481Z,9.20
2019-05-16T06:05:41.430Z,8.70
2019-05-16T06:08:10.529Z,8.30
2019-05-16T06:10:36.710Z,9.77
2019-05-16T06:13:03.346Z,8.47
2019-05-16T06:15:30.690Z,8.60
2019-05-16T06:18:00.057Z,9.37
2019-05-16T06:20:25.968Z,10.40
2019-05-16T06:22:52.694Z,10.57
2019-05-16T06:25:22.680Z,9.60
2019-05-16T06:27:48.184Z,9.17
2019-05-16T06:30:15.052Z,9.07
2019-05-16T06:32:41.954Z,10.20
2019-05-16T06:35:09.775Z,10.60
2019-05-16T06:37:36.848Z,9.80
2019-05-16T06:40:04.752Z,8.97
2019-05-16T06:42:33.394Z,8.83
2019-05-16T06:45:00.875Z,8.30
2019-05-16T06:47:27.829Z,10.20
2019-05-16T06:49:54.718Z,9.10
2019-05-16T06:52:21.601Z,8.87
2019-05-16T06:54:50.376Z,7.43
2019-05-16T06:57:16.803Z,8.73
2019-05-16T06:59:43.556Z,8.47
2019-05-16T07:02:12.248Z,7.93
2019-05-16T07:04:39.824Z,7.30
2019-05-16T07:07:09.493Z,7.07
2019-05-16T07:09:35.092Z,8.10
2019-05-16T07:12:01.804Z,7.13
2019-05-16T07:14:31.213Z,6.67
2019-05-16T07:16:57.290Z,6.83
2019-05-16T07:19:40.624Z,7.70
2019-05-16T07:22:07.142Z,7.47
2019-05-16T07:24:33.996Z,7.43
2019-05-16T07:27:00.826Z,7.73
2019-05-16T07:29:27.634Z,7.87
2019-05-16T07:31:55.091Z,7.73
2019-05-16T07:34:21.826Z,7.87
2019-05-16T07:36:50.247Z,6.67
2019-05-16T07:39:17.126Z,7.87
2019-05-16T07:41:43.664Z,7.83
2019-05-16T07:44:10.980Z,7.70
2019-05-16T07:46:40.817Z,7.57
2019-05-16T07:49:06.546Z,8.53
2019-05-16T07:51:33.177Z,8.50
2019-05-16T07:54:00.004Z,10.30
2019-05-16T07:56:26.643Z,8.77
2019-05-16T07:58:53.516Z,7.90
2019-05-16T08:01:20.223Z,8.60
2019-05-16T08:03:46.974Z,8.87
2019-05-16T08:06:13.838Z,9.00
2019-05-16T08:08:40.560Z,7.57
2019-05-16T08:11:07.325Z,7.93
2019-05-16T08:13:35.140Z,6.80
2019-05-16T08:16:01.849Z,8.60
2019-05-16T08:18:30.195Z,7.93
2019-05-16T08:20:57.081Z,7.90
2019-05-16T08:23:23.746Z,6.93
2019-05-16T08:25:50.987Z,6.73
2019-05-16T08:30:46.522Z,7.80
2019-05-16T08:33:14.347Z,6.93
2019-05-16T08:33:20.808Z,6.53
2019-05-16T08:35:41.467Z,8.00
2019-05-16T08:38:08.304Z,8.10
2019-05-16T08:40:59.646Z,7.97
2019-05-16T08:43:03.637Z,8.40
2019-05-16T08:45:31.561Z,6.43
2019-05-16T08:48:00.226Z,7.80
2019-05-16T08:50:27.273Z,6.83
2019-05-16T08:52:54.209Z,6.63
2019-05-16T08:55:21.756Z,7.17
2019-05-16T08:57:52.907Z,7.27
2019-05-16T09:00:21.519Z,6.07
2019-05-16T09:02:47.033Z,7.63
2019-05-16T09:05:14.163Z,6.17
2019-05-16T09:07:40.823Z,6.70
2019-05-16T09:10:40.142Z,5.60
2019-05-16T09:12:37.224Z,5.53
2019-05-16T09:15:07.381Z,6.30
2019-05-16T09:17:33.475Z,6.53
2019-05-16T09:20:00.203Z,5.77
2019-05-16T09:22:28.147Z,5.77
2019-05-16T09:24:57.731Z,5.40
2019-05-16T09:27:23.720Z,5.37
2019-05-16T09:30:07.048Z,4.83
2019-05-16T09:32:33.187Z,7.50
2019-05-16T09:34:59.953Z,4.77
2019-05-16T09:37:26.895Z,5.97
2019-05-16T09:39:57.041Z,5.17
2019-05-16T09:42:23.406Z,4.93
2019-05-16T09:44:50.604Z,5.03
2019-05-16T09:47:17.774Z,5.43
2019-05-16T09:49:47.329Z,5.63
2019-05-16T09:52:13.377Z,5.77
2019-05-16T09:54:40.041Z,6.10
2019-05-16T09:57:06.859Z,5.83
2019-05-16T09:59:33.742Z,4.90
2019-05-16T10:02:00.360Z,4.90
2019-05-16T10:04:27.042Z,4.50
2019-05-16T10:06:57.020Z,5.67
2019-05-16T10:09:22.368Z,5.27
2019-05-16T10:11:54.118Z,4.40
2019-05-16T10:14:18.372Z,4.80
2019-05-16T10:16:47.734Z,6.57
2019-05-16T10:19:13.839Z,5.17
2019-05-16T10:21:40.721Z,4.47
2019-05-16T10:24:07.460Z,5.37
2019-05-16T10:26:34.197Z,5.43
2019-05-16T10:29:01.037Z,5.53
2019-05-16T10:31:41.327Z,5.23
2019-05-16T10:33:58.543Z,5.00
2019-05-16T10:36:27.909Z,4.17
2019-05-16T10:38:54.073Z,5.10
2019-05-16T10:41:21.028Z,4.00
2019-05-16T10:43:47.747Z,5.10
2019-05-16T10:46:17.444Z,6.00
2019-05-16T10:48:43.066Z,6.03
2019-05-16T10:51:09.890Z,4.83
2019-05-16T10:54:00.902Z,5.63
2019-05-16T10:56:07.603Z,4.10
2019-05-16T10:58:41.630Z,4.43
2019-05-16T11:01:19.576Z,5.27
2019-05-16T11:03:30.811Z,4.73
2019-05-16T11:06:05.464Z,5.50
2019-05-16T11:08:25.977Z,5.57
2019-05-16T11:10:52.784Z,5.10
2019-05-16T11:13:20.640Z,5.33
2019-05-16T11:15:51.394Z,5.40
2019-05-16T11:18:18.018Z,6.40
2019-05-16T11:20:48.960Z,6.37
2019-05-16T11:23:13.926Z,5.83
2019-05-16T11:25:40.753Z,5.77
2019-05-16T11:28:07.593Z,5.53
2019-05-16T11:30:37.279Z,6.27
2019-05-16T11:33:07.380Z,5.67
2019-05-16T11:35:33.411Z,6.83
2019-05-16T11:38:00.104Z,6.57
2019-05-16T11:40:29.726Z,6.67
2019-05-16T11:43:06.628Z,6.87
2019-05-16T11:45:24.267Z,6.00
2019-05-16T11:47:51.016Z,6.57
2019-05-16T11:50:19.102Z,5.60
2019-05-16T11:52:47.705Z,5.83
2019-05-16T11:55:17.391Z,6.20
2019-05-16T11:57:58.002Z,4.77
2019-05-16T12:00:30.157Z,5.50
2019-05-16T12:02:53.563Z,4.53
2019-05-16T12:05:20.374Z,5.57
2019-05-16T12:07:48.319Z,5.60
2019-05-16T12:10:16.375Z,5.10
2019-05-16T12:12:43.274Z,5.67
2019-05-16T12:15:11.589Z,6.27
2019-05-16T12:17:38.246Z,5.80
2019-05-16T12:20:09.109Z,5.77
2019-05-16T12:22:37.726Z,4.07
2019-05-16T12:25:07.903Z,5.70
2019-05-16T12:27:34.273Z,4.40
2019-05-16T12:30:01.063Z,4.63
2019-05-16T12:32:30.852Z,6.13
2019-05-16T12:34:57.480Z,5.77
2019-05-16T12:37:24.120Z,6.07
2019-05-16T12:39:50.955Z,6.77
2019-05-16T12:42:17.872Z,4.67
2019-05-16T12:44:46.733Z,5.03
2019-05-16T12:47:12.913Z,6.30
2019-05-16T12:49:39.578Z,5.60
2019-05-16T12:52:06.900Z,4.70
2019-05-16T12:54:36.712Z,6.30
2019-05-16T12:57:02.374Z,5.53
2019-05-16T12:59:29.066Z,6.00
2019-05-16T13:01:57.656Z,6.03
2019-05-16T13:04:27.678Z,7.03
2019-05-16T13:06:52.844Z,5.80
2019-05-16T13:09:19.481Z,6.33
2019-05-16T13:11:47.250Z,6.30
2019-05-16T13:14:14.027Z,5.63
2019-05-16T13:16:40.913Z,5.80
2019-05-16T13:19:07.670Z,7.57
2019-05-16T13:21:34.316Z,5.27
2019-05-16T13:24:01.031Z,6.07
2019-05-16T13:26:28.874Z,7.03
2019-05-16T13:28:57.777Z,6.17
2019-05-16T13:31:23.949Z,6.97
2019-05-16T13:33:52.542Z,6.37
2019-05-16T13:36:19.173Z,6.93
2019-05-16T13:38:48.134Z,6.93
2019-05-16T13:41:14.521Z,6.50
2019-05-16T13:43:41.231Z,6.30
2019-05-16T13:46:07.882Z,7.37
2019-05-16T13:48:37.419Z,8.70
2019-05-16T13:51:13.874Z,7.07
2019-05-16T13:53:32.032Z,7.00
2019-05-16T13:55:59.082Z,7.97
2019-05-16T13:58:28.063Z,7.03
2019-05-16T14:00:56.998Z,6.80
2019-05-16T14:03:23.262Z,7.10
2019-05-16T14:05:50.016Z,7.27
2019-05-16T14:08:17.124Z,6.60
2019-05-16T14:10:47.962Z,7.33
2019-05-16T14:13:13.018Z,7.07
2019-05-16T14:15:39.642Z,6.90
2019-05-16T14:18:12.726Z,6.90
2019-05-16T14:20:39.490Z,6.00
2019-05-16T14:23:08.421Z,6.00
2019-05-16T14:25:37.564Z,6.17
2019-05-16T14:28:03.604Z,5.20
2019-05-16T14:30:30.202Z,5.60
2019-05-16T14:33:01.088Z,5.37
2019-05-16T14:35:26.776Z,5.67
2019-05-16T14:37:58.184Z,5.37
2019-05-16T14:40:23.359Z,4.50
2019-05-16T14:42:49.955Z,4.80
2019-05-16T14:45:17.823Z,4.93
2019-05-16T14:47:47.514Z,4.70
2019-05-16T14:50:16.838Z,6.17
2019-05-16T14:52:43.261Z,7.33
2019-05-16T14:55:10.093Z,5.33
2019-05-16T14:57:37.143Z,6.50
2019-05-16T15:00:07.476Z,7.03
2019-05-16T15:02:37.795Z,5.97
2019-05-16T15:05:07.631Z,6.60
2019-05-16T15:07:33.342Z,6.63
2019-05-16T15:10:01.256Z,7.33
2019-05-16T15:12:28.061Z,6.80
2019-05-16T15:14:57.124Z,6.43
2019-05-16T15:17:23.156Z,7.13
2019-05-16T15:19:49.806Z,6.50
2019-05-16T15:22:16.931Z,8.07
2019-05-16T15:24:43.869Z,8.17
2019-05-16T15:27:11.036Z,7.37
2019-05-16T15:29:37.872Z,7.03
2019-05-16T15:32:06.960Z,6.93
2019-05-16T15:34:34.788Z,7.80
2019-05-16T15:37:03.557Z,8.27
2019-05-16T15:39:30.662Z,8.87
2019-05-16T15:41:57.284Z,7.00
2019-05-16T15:44:23.903Z,7.93
2019-05-16T15:46:50.634Z,7.90
2019-05-16T15:49:17.493Z,8.37
2019-05-16T15:51:44.367Z,8.20
2019-05-16T15:54:17.814Z,7.83
2019-05-16T15:56:47.610Z,7.57
2019-05-16T15:59:17.849Z,7.90
2019-05-16T16:01:43.897Z,7.53
2019-05-16T16:04:11.135Z,7.90
2019-05-16T16:06:38.135Z,7.97
2019-05-16T16:09:06.921Z,8.23
2019-05-16T16:11:33.747Z,8.60
2019-05-16T16:14:00.479Z,7.80
2019-05-16T16:16:27.138Z,8.47
2019-05-16T16:18:53.855Z,8.10
2019-05-16T16:21:20.584Z,8.27
2019-05-16T16:23:49.056Z,7.80
2019-05-16T16:26:17.751Z,8.13
2019-05-16T16:28:44.388Z,8.70
2019-05-16T16:31:11.843Z,8.33
2019-05-16T16:33:38.922Z,8.23
2019-05-16T16:36:07.786Z,7.87
2019-05-16T16:38:36.858Z,9.23
2019-05-16T16:41:02.966Z,8.30
2019-05-16T16:43:29.801Z,7.57
2019-05-16T16:46:06.069Z,8.63
2019-05-16T16:48:26.653Z,7.67
2019-05-16T16:50:53.500Z,9.17
2019-05-16T16:53:20.119Z,8.03
2019-05-16T16:55:47.628Z,7.53
2019-05-16T16:58:14.371Z,8.83
2019-05-16T17:00:40.949Z,7.30
2019-05-16T17:03:10.699Z,7.80
2019-05-16T17:05:37.198Z,9.27
2019-05-16T17:08:04.415Z,7.23
2019-05-16T17:10:31.076Z,7.20
2019-05-16T17:12:58.938Z,8.37
2019-05-16T17:15:27.217Z,9.27
2019-05-16T17:17:57.358Z,7.80
2019-05-16T17:20:24.275Z,8.40
2019-05-16T17:22:51.218Z,8.87
2019-05-16T17:25:19.925Z,8.20
2019-05-16T17:27:46.946Z,7.60
2019-05-16T17:30:17.108Z,7.60
2019-05-16T17:32:44.237Z,7.17
2019-05-16T17:35:13.897Z,8.13
2019-05-16T17:37:40.593Z,8.47
2019-05-16T17:40:07.887Z,8.10
2019-05-16T17:42:37.202Z,8.30
2019-05-16T17:45:04.000Z,7.07
2019-05-16T17:47:31.643Z,8.50
2019-05-16T17:49:58.657Z,7.80
2019-05-16T17:52:27.351Z,7.93
2019-05-16T17:54:53.757Z,7.70
2019-05-16T17:57:20.522Z,8.70
2019-05-16T17:59:47.962Z,8.33
2019-05-16T18:02:17.119Z,8.10
2019-05-16T18:04:43.703Z,9.00
2019-05-16T18:07:10.485Z,8.87
2019-05-16T18:09:37.140Z,7.60
2019-05-16T18:12:03.858Z,7.37
2019-05-16T18:14:30.490Z,8.07
2019-05-16T18:17:01.940Z,8.80
2019-05-16T18:19:26.498Z,8.03
2019-05-16T18:21:57.121Z,7.60
2019-05-16T18:24:23.943Z,8.03
2019-05-16T18:26:50.647Z,8.37
2019-05-16T18:29:18.947Z,8.40
2019-05-16T18:31:47.191Z,7.37
2019-05-16T18:34:13.880Z,8.73
2019-05-16T18:36:40.559Z,8.60
2019-05-16T18:39:07.596Z,6.87
2019-05-16T18:41:36.599Z,7.40
2019-05-16T18:44:03.547Z,6.83
2019-05-16T18:46:30.182Z,8.07
2019-05-16T18:49:10.760Z,7.10
2019-05-16T18:51:37.716Z,8.50
2019-05-16T18:54:04.557Z,7.43
2019-05-16T18:56:31.320Z,7.27
2019-05-16T18:58:58.086Z,7.90
2019-05-16T19:01:26.915Z,8.23
2019-05-16T19:03:53.450Z,9.03
2019-05-16T19:06:20.079Z,7.43
2019-05-16T19:08:46.799Z,7.90
2019-05-16T19:11:14.219Z,8.40
2019-05-16T19:13:40.963Z,7.20
2019-05-16T19:16:07.675Z,8.43
2019-05-16T19:18:36.684Z,8.47
2019-05-16T19:21:03.220Z,8.53
2019-05-16T19:23:29.896Z,9.23
2019-05-16T19:25:57.113Z,9.03
2019-05-16T19:28:28.349Z,8.07
2019-05-16T19:30:52.758Z,7.60
2019-05-16T19:33:19.363Z,7.20
2019-05-16T19:35:46.891Z,7.73
2019-05-16T19:38:16.918Z,7.10
2019-05-16T19:40:43.567Z,7.27
2019-05-16T19:43:13.274Z,6.63
2019-05-16T19:45:40.049Z,7.63
2019-05-16T19:48:07.468Z,6.87
2019-05-16T19:50:36.890Z,7.17
2019-05-16T19:53:03.155Z,8.43
2019-05-16T19:55:30.501Z,8.37
2019-05-16T19:57:57.350Z,9.30
2019-05-16T20:00:26.561Z,7.53
2019-05-16T20:02:53.430Z,6.40
2019-05-16T20:05:23.143Z,7.17
2019-05-16T20:07:49.800Z,7.43
2019-05-16T20:10:17.938Z,6.93
2019-05-16T20:12:46.376Z,7.20
2019-05-16T20:15:16.583Z,7.10
2019-05-16T20:17:52.027Z,6.77
2019-05-16T20:20:18.311Z,7.03
2019-05-16T20:22:42.708Z,6.10
2019-05-16T20:25:09.673Z,7.33
2019-05-16T20:27:56.112Z,5.77
2019-05-16T20:30:23.104Z,8.40
2019-05-16T20:32:50.964Z,6.70
2019-05-16T20:35:18.026Z,6.97
2019-05-16T20:37:44.730Z,7.07
2019-05-16T20:40:12.699Z,6.87
2019-05-16T20:42:39.531Z,7.47
2019-05-16T20:45:08.088Z,7.67
2019-05-16T20:47:34.986Z,7.37
2019-05-16T20:50:03.648Z,7.60
2019-05-16T20:52:30.465Z,7.70
2019-05-16T20:54:57.764Z,7.77
2019-05-16T20:57:26.556Z,7.83
2019-05-16T20:59:53.254Z,6.67
2019-05-16T21:02:19.977Z,8.70
2019-05-16T21:04:46.832Z,7.30
2019-05-16T21:07:13.710Z,6.80
2019-05-16T21:09:40.340Z,8.23
2019-05-16T21:12:08.288Z,6.23
2019-05-16T21:14:35.125Z,7.90
2019-05-16T21:17:01.906Z,8.03
2019-05-16T21:19:28.517Z,8.73
2019-05-16T21:21:56.635Z,8.03
2019-05-16T21:24:23.628Z,8.40
2019-05-16T21:26:50.250Z,7.50
2019-05-16T21:29:19.468Z,7.67
2019-05-16T21:31:47.306Z,7.27
2019-05-16T21:34:16.061Z,8.20
2019-05-16T21:36:44.282Z,8.53
2019-05-16T21:39:11.112Z,7.37
2019-05-16T21:41:38.092Z,9.03
2019-05-16T21:44:06.429Z,7.73
2019-05-16T21:46:33.176Z,6.97
2019-05-16T21:48:59.821Z,7.97
2019-05-16T21:51:26.842Z,8.07
2019-05-16T21:53:53.542Z,7.53
2019-05-16T21:56:21.162Z,7.90
2019-05-16T21:58:48.298Z,8.03
2019-05-16T22:01:18.861Z,6.97
2019-05-16T22:03:47.100Z,8.00
2019-05-16T22:06:13.932Z,7.60
2019-05-16T22:08:40.622Z,9.17
2019-05-16T22:11:07.502Z,7.40
2019-05-16T22:13:37.096Z,8.07
2019-05-16T22:16:07.826Z,7.23
2019-05-16T22:18:38.049Z,7.67
2019-05-16T22:21:02.983Z,7.03
2019-05-16T22:23:29.785Z,7.67
2019-05-16T22:25:57.021Z,7.23
2019-05-16T22:28:23.871Z,8.17
2019-05-16T22:30:50.645Z,7.43
2019-05-16T22:33:17.964Z,8.27
2019-05-16T22:35:46.392Z,7.57
2019-05-16T22:38:13.252Z,7.43
2019-05-16T22:40:39.975Z,7.30
2019-05-16T22:43:10.186Z,8.20
2019-05-16T22:45:37.346Z,7.90
2019-05-16T22:48:06.799Z,7.07
2019-05-16T22:50:32.990Z,8.00
2019-05-16T22:52:59.699Z,8.33
2019-05-16T22:55:26.596Z,7.70
2019-05-16T22:57:53.648Z,7.77
2019-05-16T23:00:22.402Z,8.37
2019-05-16T23:02:49.010Z,8.27
2019-05-16T23:05:16.875Z,7.83
2019-05-16T23:07:43.822Z,6.93
2019-05-16T23:10:10.880Z,9.03
2019-05-16T23:12:37.546Z,8.53
2019-05-16T23:15:06.621Z,7.63
2019-05-16T23:17:33.710Z,9.57
2019-05-16T23:20:00.371Z,7.07
2019-05-16T23:22:27.387Z,8.87
2019-05-16T23:24:54.223Z,9.43
2019-05-16T23:27:20.972Z,8.23
2019-05-16T23:29:47.571Z,7.67
2019-05-16T23:32:14.175Z,7.47
2019-05-16T23:34:40.941Z,8.07
2019-05-16T23:37:07.892Z,8.90
2019-05-16T23:39:34.542Z,7.33
2019-05-16T23:42:01.170Z,8.40
2019-05-16T23:44:27.895Z,7.33
2019-05-16T23:46:56.345Z,7.17
2019-05-16T23:49:27.366Z,7.87
2019-05-16T23:51:53.675Z,8.93
2019-05-16T23:54:20.275Z,8.87
2019-05-16T23:56:46.920Z,8.70
2019-05-16T23:59:13.606Z,7.87
